sensor_id;sensor_type;location;lat;lon;timestamp;P1;P2;P0
28647;PMS5003;17137;51.494;-0.262;2023-08-20T00:00:13;44;40;
28647;PMS5003;17137;51.494;-0.262;2023-08-20T00:00:44;39;37;
28647;PMS5003;17137;51.494;-0.262;2023-08-20T00:01:15;39;37;
28647;PMS5003;17137;51.494;-0.262;2023-08-20T00:01:51;37;36;
28647;PMS5003;17137;51.494;-0.262;2023-08-20T00:02:26;38;37;
28647;PMS5003;17137;51.494;-0.262;2023-08-20T00:03:02;38;37;
28647;PMS5003;17137;51.494;-0.262;2023-08-20T00:03:39;39;38;
28647;PMS5003;17137;51.494;-0.262;2023-08-20T00:04:10;40;38;
28647;PMS5003;17137;51.494;-0.262;2023-08-20T00:04:42;42;39;
28647;PMS5003;17137;51.494;-0.262;2023-08-20T00:05:15;41;39;
28647;PMS5003;17137;51.494;-0.262;2023-08-20T00:05:46;46;44;
28647;PMS5003;17137;51.494;-0.262;2023-08-20T00:06:17;45;43;
28647;PMS5003;17137;51.494;-0.262;2023-08-20T00:06:48;45;43;
28647;PMS5003;17137;51.494;-0.262;2023-08-20T00:07:19;43;41;
28647;PMS5003;17137;51.494;-0.262;2023-08-20T00:07:50;43;41;
28647;PMS5003;17137;51.494;-0.262;2023-08-20T00:08:20;42;40;
28647;PMS5003;17137;51.494;-0.262;2023-08-20T00:08:50;40;40;
28647;PMS5003;17137;51.494;-0.262;2023-08-20T00:09:21;40;40;
28647;PMS5003;17137;51.494;-0.262;2023-08-20T00:09:51;40;40;
28647;PMS5003;17137;51.494;-0.262;2023-08-20T00:10:21;40;39;
28647;PMS5003;17137;51.494;-0.262;2023-08-20T00:10:52;40;39;
28647;PMS5003;17137;51.494;-0.262;2023-08-20T00:11:22;40;39;
28647;PMS5003;17137;51.494;-0.262;2023-08-20T00:11:53;39;37;
28647;PMS5003;17137;51.494;-0.262;2023-08-20T00:12:23;39;37;
28647;PMS5003;17137;51.494;-0.262;2023-08-20T00:12:54;39;37;
28647;PMS5003;17137;51.494;-0.262;2023-08-20T00:13:24;39;37;
28647;PMS5003;17137;51.494;-0.262;2023-08-20T00:13:54;37;36;
28647;PMS5003;17137;51.494;-0.262;2023-08-20T00:14:51;40;39;
28647;PMS5003;17137;51.494;-0.262;2023-08-20T00:15:22;40;39;
28647;PMS5003;17137;51.494;-0.262;2023-08-20T00:15:58;40;39;
28647;PMS5003;17137;51.494;-0.262;2023-08-20T00:16:29;41;39;
28647;PMS5003;17137;51.494;-0.262;2023-08-20T00:16:59;39;37;
28647;PMS5003;17137;51.494;-0.262;2023-08-20T00:17:30;37;35;
28647;PMS5003;17137;51.494;-0.262;2023-08-20T00:18:02;37;34;
28647;PMS5003;17137;51.494;-0.262;2023-08-20T00:18:33;37;33;
28647;PMS5003;17137;51.494;-0.262;2023-08-20T00:19:04;36;33;
28647;PMS5003;17137;51.494;-0.262;2023-08-20T00:19:35;36;33;
28647;PMS5003;17137;51.494;-0.262;2023-08-20T00:20:07;37;34;
28647;PMS5003;17137;51.494;-0.262;2023-08-20T00:20:39;37;34;
28647;PMS5003;17137;51.494;-0.262;2023-08-20T00:21:10;36;33;
28647;PMS5003;17137;51.494;-0.262;2023-08-20T00:21:41;37;34;
28647;PMS5003;17137;51.494;-0.262;2023-08-20T00:22:42;43;38;
28647;PMS5003;17137;51.494;-0.262;2023-08-20T00:23:13;43;38;
28647;PMS5003;17137;51.494;-0.262;2023-08-20T00:23:44;44;39;
28647;PMS5003;17137;51.494;-0.262;2023-08-20T00:24:15;44;39;
28647;PMS5003;17137;51.494;-0.262;2023-08-20T00:24:46;42;38;
28647;PMS5003;17137;51.494;-0.262;2023-08-20T00:25:17;43;40;
28647;PMS5003;17137;51.494;-0.262;2023-08-20T00:25:48;43;40;
28647;PMS5003;17137;51.494;-0.262;2023-08-20T00:26:19;43;40;
28647;PMS5003;17137;51.494;-0.262;2023-08-20T00:26:50;42;38;
28647;PMS5003;17137;51.494;-0.262;2023-08-20T00:27:21;42;38;
28647;PMS5003;17137;51.494;-0.262;2023-08-20T00:27:51;42;38;
28647;PMS5003;17137;51.494;-0.262;2023-08-20T00:28:22;43;38;
28647;PMS5003;17137;51.494;-0.262;2023-08-20T00:28:52;43;38;
28647;PMS5003;17137;51.494;-0.262;2023-08-20T00:29:22;43;38;
28647;PMS5003;17137;51.494;-0.262;2023-08-20T00:29:53;43;37;
28647;PMS5003;17137;51.494;-0.262;2023-08-20T00:30:23;39;38;
28647;PMS5003;17137;51.494;-0.262;2023-08-20T00:30:53;39;38;
28647;PMS5003;17137;51.494;-0.262;2023-08-20T00:31:23;41;38;
28647;PMS5003;17137;51.494;-0.262;2023-08-20T00:31:54;43;40;
28647;PMS5003;17137;51.494;-0.262;2023-08-20T00:32:24;42;39;
28647;PMS5003;17137;51.494;-0.262;2023-08-20T00:32:55;43;40;
28647;PMS5003;17137;51.494;-0.262;2023-08-20T00:33:25;43;40;
28647;PMS5003;17137;51.494;-0.262;2023-08-20T00:33:55;43;40;
28647;PMS5003;17137;51.494;-0.262;2023-08-20T00:34:25;44;41;
28647;PMS5003;17137;51.494;-0.262;2023-08-20T00:34:56;44;41;
28647;PMS5003;17137;51.494;-0.262;2023-08-20T00:35:26;44;41;
28647;PMS5003;17137;51.494;-0.262;2023-08-20T00:35:56;45;42;
28647;PMS5003;17137;51.494;-0.262;2023-08-20T00:36:27;45;42;
28647;PMS5003;17137;51.494;-0.262;2023-08-20T00:36:57;45;42;
28647;PMS5003;17137;51.494;-0.262;2023-08-20T00:37:27;45;41;
28647;PMS5003;17137;51.494;-0.262;2023-08-20T00:37:58;45;41;
28647;PMS5003;17137;51.494;-0.262;2023-08-20T00:38:28;37;37;
28647;PMS5003;17137;51.494;-0.262;2023-08-20T00:38:58;37;37;
28647;PMS5003;17137;51.494;-0.262;2023-08-20T00:39:29;39;38;
28647;PMS5003;17137;51.494;-0.262;2023-08-20T00:39:59;39;38;
28647;PMS5003;17137;51.494;-0.262;2023-08-20T00:40:30;39;38;
28647;PMS5003;17137;51.494;-0.262;2023-08-20T00:41:00;39;38;
28647;PMS5003;17137;51.494;-0.262;2023-08-20T00:41:31;38;37;
28647;PMS5003;17137;51.494;-0.262;2023-08-20T00:42:06;38;37;
28647;PMS5003;17137;51.494;-0.262;2023-08-20T00:42:37;40;36;
28647;PMS5003;17137;51.494;-0.262;2023-08-20T00:43:07;40;36;
28647;PMS5003;17137;51.494;-0.262;2023-08-20T00:43:38;40;36;
28647;PMS5003;17137;51.494;-0.262;2023-08-20T00:44:09;40;37;
28647;PMS5003;17137;51.494;-0.262;2023-08-20T00:44:39;40;37;
28647;PMS5003;17137;51.494;-0.262;2023-08-20T00:45:10;40;37;
28647;PMS5003;17137;51.494;-0.262;2023-08-20T00:45:40;40;36;
28647;PMS5003;17137;51.494;-0.262;2023-08-20T00:46:11;40;36;
28647;PMS5003;17137;51.494;-0.262;2023-08-20T00:46:41;31;28;
28647;PMS5003;17137;51.494;-0.262;2023-08-20T00:47:12;31;28;
28647;PMS5003;17137;51.494;-0.262;2023-08-20T00:47:43;31;27;
28647;PMS5003;17137;51.494;-0.262;2023-08-20T00:48:13;32;28;
28647;PMS5003;17137;51.494;-0.262;2023-08-20T00:48:46;32;28;
28647;PMS5003;17137;51.494;-0.262;2023-08-20T00:49:16;31;27;
28647;PMS5003;17137;51.494;-0.262;2023-08-20T00:49:47;31;27;
28647;PMS5003;17137;51.494;-0.262;2023-08-20T00:50:18;31;27;
28647;PMS5003;17137;51.494;-0.262;2023-08-20T00:50:49;32;29;
28647;PMS5003;17137;51.494;-0.262;2023-08-20T00:51:19;31;29;
28647;PMS5003;17137;51.494;-0.262;2023-08-20T00:51:49;31;29;
28647;PMS5003;17137;51.494;-0.262;2023-08-20T00:52:21;31;30;
28647;PMS5003;17137;51.494;-0.262;2023-08-20T00:52:52;32;32;
28647;PMS5003;17137;51.494;-0.262;2023-08-20T00:53:22;33;32;
28647;PMS5003;17137;51.494;-0.262;2023-08-20T00:53:52;32;32;
28647;PMS5003;17137;51.494;-0.262;2023-08-20T00:54:23;32;32;
28647;PMS5003;17137;51.494;-0.262;2023-08-20T00:54:54;29;27;
28647;PMS5003;17137;51.494;-0.262;2023-08-20T00:55:24;29;27;
28647;PMS5003;17137;51.494;-0.262;2023-08-20T00:55:55;29;27;
28647;PMS5003;17137;51.494;-0.262;2023-08-20T00:56:25;29;27;
28647;PMS5003;17137;51.494;-0.262;2023-08-20T00:56:55;26;24;
28647;PMS5003;17137;51.494;-0.262;2023-08-20T00:57:26;26;24;
28647;PMS5003;17137;51.494;-0.262;2023-08-20T00:57:57;26;24;
28647;PMS5003;17137;51.494;-0.262;2023-08-20T00:58:27;26;23;
28647;PMS5003;17137;51.494;-0.262;2023-08-20T00:58:58;26;23;
28647;PMS5003;17137;51.494;-0.262;2023-08-20T00:59:29;26;23;
28647;PMS5003;17137;51.494;-0.262;2023-08-20T01:00:01;27;23;
28647;PMS5003;17137;51.494;-0.262;2023-08-20T01:00:32;27;23;
28647;PMS5003;17137;51.494;-0.262;2023-08-20T01:01:02;27;23;
28647;PMS5003;17137;51.494;-0.262;2023-08-20T01:01:33;27;24;
28647;PMS5003;17137;51.494;-0.262;2023-08-20T01:02:03;27;24;
28647;PMS5003;17137;51.494;-0.262;2023-08-20T01:02:33;27;24;
28647;PMS5003;17137;51.494;-0.262;2023-08-20T01:03:04;27;27;
28647;PMS5003;17137;51.494;-0.262;2023-08-20T01:03:35;27;27;
28647;PMS5003;17137;51.494;-0.262;2023-08-20T01:04:05;27;27;
28647;PMS5003;17137;51.494;-0.262;2023-08-20T01:04:35;29;29;
28647;PMS5003;17137;51.494;-0.262;2023-08-20T01:05:07;29;29;
28647;PMS5003;17137;51.494;-0.262;2023-08-20T01:05:42;29;29;
28647;PMS5003;17137;51.494;-0.262;2023-08-20T01:06:20;29;28;
28647;PMS5003;17137;51.494;-0.262;2023-08-20T01:07:02;29;28;
28647;PMS5003;17137;51.494;-0.262;2023-08-20T01:07:46;29;28;
28647;PMS5003;17137;51.494;-0.262;2023-08-20T01:08:31;28;27;
28647;PMS5003;17137;51.494;-0.262;2023-08-20T01:09:09;28;27;
28647;PMS5003;17137;51.494;-0.262;2023-08-20T01:09:50;28;27;
28647;PMS5003;17137;51.494;-0.262;2023-08-20T01:10:29;28;26;
28647;PMS5003;17137;51.494;-0.262;2023-08-20T01:11:10;28;26;
28647;PMS5003;17137;51.494;-0.262;2023-08-20T01:11:48;28;26;
28647;PMS5003;17137;51.494;-0.262;2023-08-20T01:12:23;28;27;
28647;PMS5003;17137;51.494;-0.262;2023-08-20T01:12:55;28;25;
28647;PMS5003;17137;51.494;-0.262;2023-08-20T01:13:26;25;25;
28647;PMS5003;17137;51.494;-0.262;2023-08-20T01:13:57;25;25;
28647;PMS5003;17137;51.494;-0.262;2023-08-20T01:14:28;25;25;
28647;PMS5003;17137;51.494;-0.262;2023-08-20T01:14:59;25;23;
28647;PMS5003;17137;51.494;-0.262;2023-08-20T01:15:29;24;22;
28647;PMS5003;17137;51.494;-0.262;2023-08-20T01:16:00;24;22;
28647;PMS5003;17137;51.494;-0.262;2023-08-20T01:16:30;25;23;
28647;PMS5003;17137;51.494;-0.262;2023-08-20T01:17:00;25;23;
28647;PMS5003;17137;51.494;-0.262;2023-08-20T01:17:31;26;24;
28647;PMS5003;17137;51.494;-0.262;2023-08-20T01:18:01;27;24;
28647;PMS5003;17137;51.494;-0.262;2023-08-20T01:18:32;27;24;
28647;PMS5003;17137;51.494;-0.262;2023-08-20T01:19:02;26;23;
28647;PMS5003;17137;51.494;-0.262;2023-08-20T01:19:33;26;23;
28647;PMS5003;17137;51.494;-0.262;2023-08-20T01:20:04;26;23;
28647;PMS5003;17137;51.494;-0.262;2023-08-20T01:20:44;26;23;
28647;PMS5003;17137;51.494;-0.262;2023-08-20T01:21:23;26;25;
28647;PMS5003;17137;51.494;-0.262;2023-08-20T01:22:13;26;25;
28647;PMS5003;17137;51.494;-0.262;2023-08-20T01:24:54;26;25;
28647;PMS5003;17137;51.494;-0.262;2023-08-20T01:25:39;26;25;
28647;PMS5003;17137;51.494;-0.262;2023-08-20T01:26:21;26;25;
28647;PMS5003;17137;51.494;-0.262;2023-08-20T01:27:10;27;26;
28647;PMS5003;17137;51.494;-0.262;2023-08-20T01:27:51;27;26;
28647;PMS5003;17137;51.494;-0.262;2023-08-20T01:28:27;27;25;
28647;PMS5003;17137;51.494;-0.262;2023-08-20T01:28:59;27;25;
28647;PMS5003;17137;51.494;-0.262;2023-08-20T01:29:29;27;25;
28647;PMS5003;17137;51.494;-0.262;2023-08-20T01:30:01;28;26;
28647;PMS5003;17137;51.494;-0.262;2023-08-20T01:30:32;28;26;
28647;PMS5003;17137;51.494;-0.262;2023-08-20T01:31:04;28;26;
28647;PMS5003;17137;51.494;-0.262;2023-08-20T01:31:37;28;25;
28647;PMS5003;17137;51.494;-0.262;2023-08-20T01:32:08;30;26;
28647;PMS5003;17137;51.494;-0.262;2023-08-20T01:32:40;32;30;
28647;PMS5003;17137;51.494;-0.262;2023-08-20T01:33:12;31;29;
28647;PMS5003;17137;51.494;-0.262;2023-08-20T01:33:43;33;30;
28647;PMS5003;17137;51.494;-0.262;2023-08-20T01:34:13;34;31;
28647;PMS5003;17137;51.494;-0.262;2023-08-20T01:34:45;34;31;
28647;PMS5003;17137;51.494;-0.262;2023-08-20T01:35:15;35;30;
28647;PMS5003;17137;51.494;-0.262;2023-08-20T01:35:46;35;30;
28647;PMS5003;17137;51.494;-0.262;2023-08-20T01:36:17;35;30;
28647;PMS5003;17137;51.494;-0.262;2023-08-20T01:36:47;36;29;
28647;PMS5003;17137;51.494;-0.262;2023-08-20T01:37:18;36;29;
28647;PMS5003;17137;51.494;-0.262;2023-08-20T01:37:49;36;29;
28647;PMS5003;17137;51.494;-0.262;2023-08-20T01:38:19;34;27;
28647;PMS5003;17137;51.494;-0.262;2023-08-20T01:38:49;34;27;
28647;PMS5003;17137;51.494;-0.262;2023-08-20T01:39:20;34;27;
28647;PMS5003;17137;51.494;-0.262;2023-08-20T01:39:50;34;26;
28647;PMS5003;17137;51.494;-0.262;2023-08-20T01:40:20;34;26;
28647;PMS5003;17137;51.494;-0.262;2023-08-20T01:40:51;32;28;
28647;PMS5003;17137;51.494;-0.262;2023-08-20T01:41:26;32;28;
28647;PMS5003;17137;51.494;-0.262;2023-08-20T01:41:57;34;29;
28647;PMS5003;17137;51.494;-0.262;2023-08-20T01:42:27;36;32;
28647;PMS5003;17137;51.494;-0.262;2023-08-20T01:42:57;34;31;
28647;PMS5003;17137;51.494;-0.262;2023-08-20T01:43:28;34;32;
28647;PMS5003;17137;51.494;-0.262;2023-08-20T01:43:58;35;33;
28647;PMS5003;17137;51.494;-0.262;2023-08-20T01:44:28;35;32;
28647;PMS5003;17137;51.494;-0.262;2023-08-20T01:44:59;34;31;
28647;PMS5003;17137;51.494;-0.262;2023-08-20T01:45:34;34;31;
28647;PMS5003;17137;51.494;-0.262;2023-08-20T01:46:04;34;31;
28647;PMS5003;17137;51.494;-0.262;2023-08-20T01:46:35;34;31;
28647;PMS5003;17137;51.494;-0.262;2023-08-20T01:47:05;32;29;
28647;PMS5003;17137;51.494;-0.262;2023-08-20T01:47:36;32;29;
28647;PMS5003;17137;51.494;-0.262;2023-08-20T01:48:06;32;29;
28647;PMS5003;17137;51.494;-0.262;2023-08-20T01:48:36;34;31;
28647;PMS5003;17137;51.494;-0.262;2023-08-20T01:49:07;37;35;
28647;PMS5003;17137;51.494;-0.262;2023-08-20T01:49:37;37;35;
28647;PMS5003;17137;51.494;-0.262;2023-08-20T01:50:08;38;36;
28647;PMS5003;17137;51.494;-0.262;2023-08-20T01:50:39;37;35;
28647;PMS5003;17137;51.494;-0.262;2023-08-20T01:51:09;41;39;
28647;PMS5003;17137;51.494;-0.262;2023-08-20T01:51:44;41;38;
28647;PMS5003;17137;51.494;-0.262;2023-08-20T01:52:15;38;38;
28647;PMS5003;17137;51.494;-0.262;2023-08-20T01:52:46;38;38;
28647;PMS5003;17137;51.494;-0.262;2023-08-20T01:53:16;38;38;
28647;PMS5003;17137;51.494;-0.262;2023-08-20T01:53:46;37;36;
28647;PMS5003;17137;51.494;-0.262;2023-08-20T01:54:17;37;36;
28647;PMS5003;17137;51.494;-0.262;2023-08-20T01:54:48;37;36;
28647;PMS5003;17137;51.494;-0.262;2023-08-20T01:55:18;37;36;
28647;PMS5003;17137;51.494;-0.262;2023-08-20T01:55:48;39;37;
28647;PMS5003;17137;51.494;-0.262;2023-08-20T01:56:19;39;37;
28647;PMS5003;17137;51.494;-0.262;2023-08-20T01:56:49;41;39;
28647;PMS5003;17137;51.494;-0.262;2023-08-20T01:57:19;40;39;
28647;PMS5003;17137;51.494;-0.262;2023-08-20T01:57:50;42;40;
28647;PMS5003;17137;51.494;-0.262;2023-08-20T01:58:20;43;40;
28647;PMS5003;17137;51.494;-0.262;2023-08-20T01:58:50;43;40;
28647;PMS5003;17137;51.494;-0.262;2023-08-20T01:59:21;44;41;
28647;PMS5003;17137;51.494;-0.262;2023-08-20T01:59:52;44;41;
28647;PMS5003;17137;51.494;-0.262;2023-08-20T02:00:22;43;40;
28647;PMS5003;17137;51.494;-0.262;2023-08-20T02:00:52;42;39;
28647;PMS5003;17137;51.494;-0.262;2023-08-20T02:01:23;42;39;
28647;PMS5003;17137;51.494;-0.262;2023-08-20T02:01:53;43;40;
28647;PMS5003;17137;51.494;-0.262;2023-08-20T02:02:23;41;38;
28647;PMS5003;17137;51.494;-0.262;2023-08-20T02:02:54;41;38;
28647;PMS5003;17137;51.494;-0.262;2023-08-20T02:03:24;41;38;
28647;PMS5003;17137;51.494;-0.262;2023-08-20T02:03:54;40;37;
28647;PMS5003;17137;51.494;-0.262;2023-08-20T02:04:25;40;37;
28647;PMS5003;17137;51.494;-0.262;2023-08-20T02:04:55;40;37;
28647;PMS5003;17137;51.494;-0.262;2023-08-20T02:05:25;34;33;
28647;PMS5003;17137;51.494;-0.262;2023-08-20T02:05:56;34;33;
28647;PMS5003;17137;51.494;-0.262;2023-08-20T02:06:26;36;34;
28647;PMS5003;17137;51.494;-0.262;2023-08-20T02:06:56;36;34;
28647;PMS5003;17137;51.494;-0.262;2023-08-20T02:07:27;36;34;
28647;PMS5003;17137;51.494;-0.262;2023-08-20T02:07:57;36;34;
28647;PMS5003;17137;51.494;-0.262;2023-08-20T02:08:27;36;34;
28647;PMS5003;17137;51.494;-0.262;2023-08-20T02:08:57;36;34;
28647;PMS5003;17137;51.494;-0.262;2023-08-20T02:09:33;37;35;
28647;PMS5003;17137;51.494;-0.262;2023-08-20T02:10:03;37;35;
28647;PMS5003;17137;51.494;-0.262;2023-08-20T02:10:35;37;35;
28647;PMS5003;17137;51.494;-0.262;2023-08-20T02:11:05;36;34;
28647;PMS5003;17137;51.494;-0.262;2023-08-20T02:11:35;36;34;
28647;PMS5003;17137;51.494;-0.262;2023-08-20T02:12:06;36;34;
28647;PMS5003;17137;51.494;-0.262;2023-08-20T02:12:37;36;36;
28647;PMS5003;17137;51.494;-0.262;2023-08-20T02:13:07;36;36;
28647;PMS5003;17137;51.494;-0.262;2023-08-20T02:13:37;41;38;
28647;PMS5003;17137;51.494;-0.262;2023-08-20T02:14:07;40;39;
28647;PMS5003;17137;51.494;-0.262;2023-08-20T02:14:38;40;39;
28647;PMS5003;17137;51.494;-0.262;2023-08-20T02:15:09;40;39;
28647;PMS5003;17137;51.494;-0.262;2023-08-20T02:15:39;40;39;
28647;PMS5003;17137;51.494;-0.262;2023-08-20T02:16:10;39;38;
28647;PMS5003;17137;51.494;-0.262;2023-08-20T02:16:40;39;38;
28647;PMS5003;17137;51.494;-0.262;2023-08-20T02:17:11;39;38;
28647;PMS5003;17137;51.494;-0.262;2023-08-20T02:17:41;39;38;
28647;PMS5003;17137;51.494;-0.262;2023-08-20T02:18:11;39;38;
28647;PMS5003;17137;51.494;-0.262;2023-08-20T02:18:42;41;40;
28647;PMS5003;17137;51.494;-0.262;2023-08-20T02:19:12;41;40;
28647;PMS5003;17137;51.494;-0.262;2023-08-20T02:19:42;39;39;
28647;PMS5003;17137;51.494;-0.262;2023-08-20T02:20:13;39;39;
28647;PMS5003;17137;51.494;-0.262;2023-08-20T02:20:43;38;38;
28647;PMS5003;17137;51.494;-0.262;2023-08-20T02:21:13;40;38;
28647;PMS5003;17137;51.494;-0.262;2023-08-20T02:21:44;36;32;
28647;PMS5003;17137;51.494;-0.262;2023-08-20T02:22:14;36;32;
28647;PMS5003;17137;51.494;-0.262;2023-08-20T02:22:45;36;32;
28647;PMS5003;17137;51.494;-0.262;2023-08-20T02:23:16;35;31;
28647;PMS5003;17137;51.494;-0.262;2023-08-20T02:23:46;35;31;
28647;PMS5003;17137;51.494;-0.262;2023-08-20T02:24:16;35;31;
28647;PMS5003;17137;51.494;-0.262;2023-08-20T02:24:47;37;33;
28647;PMS5003;17137;51.494;-0.262;2023-08-20T02:25:17;37;34;
28647;PMS5003;17137;51.494;-0.262;2023-08-20T02:25:47;38;35;
28647;PMS5003;17137;51.494;-0.262;2023-08-20T02:26:18;38;35;
28647;PMS5003;17137;51.494;-0.262;2023-08-20T02:26:48;36;35;
28647;PMS5003;17137;51.494;-0.262;2023-08-20T02:27:18;37;35;
28647;PMS5003;17137;51.494;-0.262;2023-08-20T02:27:48;39;38;
28647;PMS5003;17137;51.494;-0.262;2023-08-20T02:28:19;38;37;
28647;PMS5003;17137;51.494;-0.262;2023-08-20T02:28:49;40;37;
28647;PMS5003;17137;51.494;-0.262;2023-08-20T02:29:19;39;36;
28647;PMS5003;17137;51.494;-0.262;2023-08-20T02:29:49;35;32;
28647;PMS5003;17137;51.494;-0.262;2023-08-20T02:30:20;35;32;
28647;PMS5003;17137;51.494;-0.262;2023-08-20T02:30:50;33;32;
28647;PMS5003;17137;51.494;-0.262;2023-08-20T02:31:20;33;32;
28647;PMS5003;17137;51.494;-0.262;2023-08-20T02:31:51;33;32;
28647;PMS5003;17137;51.494;-0.262;2023-08-20T02:32:21;33;32;
28647;PMS5003;17137;51.494;-0.262;2023-08-20T02:32:51;33;32;
28647;PMS5003;17137;51.494;-0.262;2023-08-20T02:33:21;33;32;
28647;PMS5003;17137;51.494;-0.262;2023-08-20T02:33:52;32;31;
28647;PMS5003;17137;51.494;-0.262;2023-08-20T02:34:22;32;31;
28647;PMS5003;17137;51.494;-0.262;2023-08-20T02:34:52;32;31;
28647;PMS5003;17137;51.494;-0.262;2023-08-20T02:35:23;33;32;
28647;PMS5003;17137;51.494;-0.262;2023-08-20T02:35:54;33;32;
28647;PMS5003;17137;51.494;-0.262;2023-08-20T02:36:29;33;32;
28647;PMS5003;17137;51.494;-0.262;2023-08-20T02:36:59;35;34;
28647;PMS5003;17137;51.494;-0.262;2023-08-20T02:37:29;35;34;
28647;PMS5003;17137;51.494;-0.262;2023-08-20T02:38:00;50;42;
28647;PMS5003;17137;51.494;-0.262;2023-08-20T02:38:30;55;44;
28647;PMS5003;17137;51.494;-0.262;2023-08-20T02:39:00;53;43;
28647;PMS5003;17137;51.494;-0.262;2023-08-20T02:39:31;50;41;
28647;PMS5003;17137;51.494;-0.262;2023-08-20T02:40:01;50;41;
28647;PMS5003;17137;51.494;-0.262;2023-08-20T02:40:32;51;41;
28647;PMS5003;17137;51.494;-0.262;2023-08-20T02:41:02;49;40;
28647;PMS5003;17137;51.494;-0.262;2023-08-20T02:41:33;50;40;
28647;PMS5003;17137;51.494;-0.262;2023-08-20T02:42:08;47;39;
28647;PMS5003;17137;51.494;-0.262;2023-08-20T02:42:38;46;40;
28647;PMS5003;17137;51.494;-0.262;2023-08-20T02:43:09;46;40;
28647;PMS5003;17137;51.494;-0.262;2023-08-20T02:43:39;46;40;
28647;PMS5003;17137;51.494;-0.262;2023-08-20T02:44:10;46;40;
28647;PMS5003;17137;51.494;-0.262;2023-08-20T02:44:40;41;38;
28647;PMS5003;17137;51.494;-0.262;2023-08-20T02:45:10;41;38;
28647;PMS5003;17137;51.494;-0.262;2023-08-20T02:45:41;41;38;
28647;PMS5003;17137;51.494;-0.262;2023-08-20T02:46:11;32;30;
28647;PMS5003;17137;51.494;-0.262;2023-08-20T02:46:41;35;32;
28647;PMS5003;17137;51.494;-0.262;2023-08-20T02:47:11;36;33;
28647;PMS5003;17137;51.494;-0.262;2023-08-20T02:47:42;39;36;
28647;PMS5003;17137;51.494;-0.262;2023-08-20T02:48:13;38;35;
28647;PMS5003;17137;51.494;-0.262;2023-08-20T02:48:43;36;35;
28647;PMS5003;17137;51.494;-0.262;2023-08-20T02:49:14;37;36;
28647;PMS5003;17137;51.494;-0.262;2023-08-20T02:49:44;37;36;
28647;PMS5003;17137;51.494;-0.262;2023-08-20T02:50:15;37;36;
28647;PMS5003;17137;51.494;-0.262;2023-08-20T02:50:46;40;38;
28647;PMS5003;17137;51.494;-0.262;2023-08-20T02:51:16;40;38;
28647;PMS5003;17137;51.494;-0.262;2023-08-20T02:51:46;37;36;
28647;PMS5003;17137;51.494;-0.262;2023-08-20T02:52:17;37;36;
28647;PMS5003;17137;51.494;-0.262;2023-08-20T02:52:47;37;36;
28647;PMS5003;17137;51.494;-0.262;2023-08-20T02:53:17;37;35;
28647;PMS5003;17137;51.494;-0.262;2023-08-20T02:53:47;37;35;
28647;PMS5003;17137;51.494;-0.262;2023-08-20T02:54:18;41;38;
28647;PMS5003;17137;51.494;-0.262;2023-08-20T02:54:48;40;38;
28647;PMS5003;17137;51.494;-0.262;2023-08-20T02:55:18;42;40;
28647;PMS5003;17137;51.494;-0.262;2023-08-20T02:55:49;43;40;
28647;PMS5003;17137;51.494;-0.262;2023-08-20T02:56:19;43;41;
28647;PMS5003;17137;51.494;-0.262;2023-08-20T02:56:49;43;40;
28647;PMS5003;17137;51.494;-0.262;2023-08-20T02:57:20;42;39;
28647;PMS5003;17137;51.494;-0.262;2023-08-20T02:57:50;42;39;
28647;PMS5003;17137;51.494;-0.262;2023-08-20T02:58:20;42;39;
28647;PMS5003;17137;51.494;-0.262;2023-08-20T02:58:51;42;39;
28647;PMS5003;17137;51.494;-0.262;2023-08-20T02:59:21;42;39;
28647;PMS5003;17137;51.494;-0.262;2023-08-20T02:59:51;41;39;
28647;PMS5003;17137;51.494;-0.262;2023-08-20T03:00:22;41;39;
28647;PMS5003;17137;51.494;-0.262;2023-08-20T03:00:52;41;39;
28647;PMS5003;17137;51.494;-0.262;2023-08-20T03:01:23;41;39;
28647;PMS5003;17137;51.494;-0.262;2023-08-20T03:01:54;41;39;
28647;PMS5003;17137;51.494;-0.262;2023-08-20T03:02:25;41;38;
28647;PMS5003;17137;51.494;-0.262;2023-08-20T03:02:55;41;38;
28647;PMS5003;17137;51.494;-0.262;2023-08-20T03:03:25;41;38;
28647;PMS5003;17137;51.494;-0.262;2023-08-20T03:03:56;40;37;
28647;PMS5003;17137;51.494;-0.262;2023-08-20T03:04:26;40;37;
28647;PMS5003;17137;51.494;-0.262;2023-08-20T03:04:56;40;37;
28647;PMS5003;17137;51.494;-0.262;2023-08-20T03:05:27;36;36;
28647;PMS5003;17137;51.494;-0.262;2023-08-20T03:06:02;36;36;
28647;PMS5003;17137;51.494;-0.262;2023-08-20T03:06:32;36;36;
28647;PMS5003;17137;51.494;-0.262;2023-08-20T03:07:03;35;35;
28647;PMS5003;17137;51.494;-0.262;2023-08-20T03:07:33;35;35;
28647;PMS5003;17137;51.494;-0.262;2023-08-20T03:08:04;35;35;
28647;PMS5003;17137;51.494;-0.262;2023-08-20T03:08:35;35;35;
28647;PMS5003;17137;51.494;-0.262;2023-08-20T03:09:05;35;35;
28647;PMS5003;17137;51.494;-0.262;2023-08-20T03:09:35;35;35;
28647;PMS5003;17137;51.494;-0.262;2023-08-20T03:10:06;35;35;
28647;PMS5003;17137;51.494;-0.262;2023-08-20T03:10:37;40;38;
28647;PMS5003;17137;51.494;-0.262;2023-08-20T03:11:07;40;38;
28647;PMS5003;17137;51.494;-0.262;2023-08-20T03:11:37;40;38;
28647;PMS5003;17137;51.494;-0.262;2023-08-20T03:12:08;40;38;
28647;PMS5003;17137;51.494;-0.262;2023-08-20T03:12:38;40;38;
28647;PMS5003;17137;51.494;-0.262;2023-08-20T03:13:08;40;38;
28647;PMS5003;17137;51.494;-0.262;2023-08-20T03:13:39;42;41;
28647;PMS5003;17137;51.494;-0.262;2023-08-20T03:14:09;42;41;
28647;PMS5003;17137;51.494;-0.262;2023-08-20T03:14:39;42;41;
28647;PMS5003;17137;51.494;-0.262;2023-08-20T03:15:15;40;39;
28647;PMS5003;17137;51.494;-0.262;2023-08-20T03:15:46;40;40;
28647;PMS5003;17137;51.494;-0.262;2023-08-20T03:16:16;39;39;
28647;PMS5003;17137;51.494;-0.262;2023-08-20T03:16:46;37;37;
28647;PMS5003;17137;51.494;-0.262;2023-08-20T03:17:16;39;39;
28647;PMS5003;17137;51.494;-0.262;2023-08-20T03:17:47;38;38;
28647;PMS5003;17137;51.494;-0.262;2023-08-20T03:18:17;38;38;
28647;PMS5003;17137;51.494;-0.262;2023-08-20T03:18:48;43;35;
28647;PMS5003;17137;51.494;-0.262;2023-08-20T03:19:18;39;35;
28647;PMS5003;17137;51.494;-0.262;2023-08-20T03:19:57;39;35;
28647;PMS5003;17137;51.494;-0.262;2023-08-20T03:20:28;39;35;
28647;PMS5003;17137;51.494;-0.262;2023-08-20T03:20:58;38;35;
28647;PMS5003;17137;51.494;-0.262;2023-08-20T03:21:29;38;35;
28647;PMS5003;17137;51.494;-0.262;2023-08-20T03:21:59;38;35;
28647;PMS5003;17137;51.494;-0.262;2023-08-20T03:22:29;36;32;
28647;PMS5003;17137;51.494;-0.262;2023-08-20T03:23:00;36;32;
28647;PMS5003;17137;51.494;-0.262;2023-08-20T03:23:30;36;32;
28647;PMS5003;17137;51.494;-0.262;2023-08-20T03:24:01;35;31;
28647;PMS5003;17137;51.494;-0.262;2023-08-20T03:24:32;35;31;
28647;PMS5003;17137;51.494;-0.262;2023-08-20T03:25:02;35;31;
28647;PMS5003;17137;51.494;-0.262;2023-08-20T03:25:33;36;33;
28647;PMS5003;17137;51.494;-0.262;2023-08-20T03:26:03;37;33;
28647;PMS5003;17137;51.494;-0.262;2023-08-20T03:26:34;39;35;
28647;PMS5003;17137;51.494;-0.262;2023-08-20T03:27:04;35;35;